createdAt,value
2018-03-25T00:00:59.103Z,7.75
2018-03-25T00:03:24.928Z,8.19
2018-03-25T00:05:50.725Z,8.22
2018-03-25T00:08:16.543Z,8.29
2018-03-25T00:10:42.336Z,8.12
2018-03-25T00:13:08.124Z,8.13
2018-03-25T00:15:33.935Z,8.04
2018-03-25T00:17:59.737Z,7.97
2018-03-25T00:20:25.515Z,7.91
2018-03-25T00:22:51.393Z,7.87
2018-03-25T00:25:17.224Z,8.01
2018-03-25T00:27:43.037Z,7.95
2018-03-25T00:30:08.822Z,7.88
2018-03-25T00:32:34.619Z,8.06
2018-03-25T00:35:00.415Z,8.01
2018-03-25T00:37:26.207Z,8.08
2018-03-25T00:39:52.008Z,8.06
2018-03-25T00:42:17.833Z,8.08
2018-03-25T00:44:43.608Z,7.92
2018-03-25T00:47:09.405Z,7.85
2018-03-25T00:49:35.200Z,7.85
2018-03-25T00:52:01.006Z,7.80
2018-03-25T00:54:26.794Z,7.64
2018-03-25T00:56:52.579Z,7.96
2018-03-25T00:59:18.399Z,7.75
2018-03-25T01:01:44.205Z,7.69
2018-03-25T01:04:09.974Z,7.69
2018-03-25T01:06:35.767Z,7.75
2018-03-25T01:09:01.564Z,7.96
2018-03-25T01:11:27.436Z,7.83
2018-03-25T01:13:53.262Z,7.68
2018-03-25T01:16:19.057Z,7.62
2018-03-25T01:18:44.838Z,7.56
2018-03-25T01:21:10.734Z,7.51
2018-03-25T01:23:36.520Z,7.59
2018-03-25T01:26:02.311Z,7.50
2018-03-25T01:28:28.449Z,7.56
2018-03-25T01:30:54.248Z,7.55
2018-03-25T01:33:20.041Z,7.51
2018-03-25T01:35:45.847Z,7.48
2018-03-25T01:38:11.643Z,7.61
2018-03-25T01:40:37.427Z,7.55
2018-03-25T01:43:03.244Z,7.66
2018-03-25T01:45:29.032Z,7.77
2018-03-25T01:50:27.379Z,7.49
2018-03-25T01:52:53.170Z,7.48
2018-03-25T01:55:18.956Z,7.45
2018-03-25T01:57:44.760Z,7.45
2018-03-25T02:00:10.555Z,7.49
2018-03-25T02:02:36.658Z,7.50
2018-03-25T02:05:02.467Z,7.41
2018-03-25T02:07:28.266Z,7.55
2018-03-25T02:09:54.066Z,7.51
2018-03-25T02:12:19.855Z,7.38
2018-03-25T02:14:45.666Z,7.35
2018-03-25T02:17:11.460Z,7.35
2018-03-25T02:19:37.245Z,7.50
2018-03-25T02:22:03.079Z,7.47
2018-03-25T02:24:28.864Z,7.23
2018-03-25T02:26:54.673Z,7.49
2018-03-25T02:29:20.497Z,7.42
2018-03-25T02:31:46.268Z,7.39
2018-03-25T02:34:12.053Z,7.41
2018-03-25T02:36:37.888Z,7.43
2018-03-25T02:39:03.691Z,7.45
2018-03-25T02:41:29.491Z,7.43
2018-03-25T02:43:55.576Z,7.61
2018-03-25T02:46:21.357Z,7.70
2018-03-25T02:48:47.142Z,7.56
2018-03-25T02:51:13.234Z,7.46
2018-03-25T02:53:39.015Z,7.45
2018-03-25T02:56:04.803Z,7.63
2018-03-25T02:58:30.634Z,7.68
2018-03-25T03:00:56.436Z,7.64
2018-03-25T03:03:22.246Z,7.36
2018-03-25T03:05:48.044Z,7.03
2018-03-25T03:08:13.829Z,7.24
2018-03-25T03:10:39.664Z,7.32
2018-03-25T03:13:05.463Z,7.30
2018-03-25T03:15:31.280Z,7.10
2018-03-25T03:17:57.078Z,7.03
2018-03-25T03:20:22.867Z,7.18
2018-03-25T03:22:48.655Z,7.10
2018-03-25T03:25:15.300Z,7.04
2018-03-25T03:27:41.086Z,7.01
2018-03-25T03:30:06.875Z,6.87
2018-03-25T03:32:32.944Z,6.83
2018-03-25T03:34:58.723Z,6.72
2018-03-25T03:37:24.519Z,6.91
2018-03-25T03:39:50.413Z,7.04
2018-03-25T03:44:48.779Z,7.20
2018-03-25T03:47:14.667Z,7.18
2018-03-25T03:49:40.452Z,7.13
2018-03-25T03:52:06.248Z,7.07
2018-03-25T03:54:32.224Z,6.99
2018-03-25T03:56:58.016Z,7.02
2018-03-25T03:59:23.795Z,6.99
2018-03-25T04:01:49.665Z,7.06
2018-03-25T04:04:15.474Z,7.15
2018-03-25T04:06:41.246Z,7.05
2018-03-25T04:09:07.090Z,6.99
2018-03-25T04:11:32.848Z,6.93
2018-03-25T04:13:58.660Z,7.02
2018-03-25T04:16:24.463Z,7.07
2018-03-25T04:18:50.266Z,7.14
2018-03-25T04:21:16.405Z,6.89
2018-03-25T04:23:42.219Z,6.93
2018-03-25T04:26:08.004Z,6.95
2018-03-25T04:28:33.799Z,6.81
2018-03-25T04:30:59.595Z,6.52
2018-03-25T04:33:25.400Z,6.42
2018-03-25T04:35:51.301Z,6.52
2018-03-25T04:38:17.095Z,6.50
2018-03-25T04:40:42.911Z,6.66
2018-03-25T04:43:08.695Z,6.69
2018-03-25T04:45:34.483Z,6.77
2018-03-25T04:48:00.284Z,6.67
2018-03-25T04:50:26.074Z,6.58
2018-03-25T04:52:51.859Z,6.48
2018-03-25T04:55:17.671Z,6.46
2018-03-25T04:57:43.480Z,6.52
2018-03-25T05:00:09.290Z,6.43
2018-03-25T05:02:35.096Z,6.45
2018-03-25T05:05:00.885Z,6.56
2018-03-25T05:07:26.679Z,6.61
2018-03-25T05:09:52.490Z,6.65
2018-03-25T05:12:18.271Z,6.81
2018-03-25T05:14:44.060Z,7.19
2018-03-25T05:17:09.863Z,7.24
2018-03-25T05:19:35.662Z,6.89
2018-03-25T05:22:01.440Z,6.92
2018-03-25T05:24:27.512Z,6.72
2018-03-25T05:26:53.299Z,6.47
2018-03-25T05:29:19.077Z,6.52
2018-03-25T05:31:44.880Z,6.91
2018-03-25T05:34:10.718Z,7.03
2018-03-25T05:36:36.470Z,6.71
2018-03-25T05:39:02.304Z,6.67
2018-03-25T05:41:28.086Z,6.52
2018-03-25T05:43:53.920Z,6.50
2018-03-25T05:46:19.738Z,6.58
2018-03-25T05:48:45.519Z,6.56
2018-03-25T05:51:11.321Z,6.53
2018-03-25T05:53:37.115Z,6.74
2018-03-25T05:56:02.919Z,6.65
2018-03-25T05:58:28.707Z,6.73
2018-03-25T06:00:54.526Z,6.68
2018-03-25T06:03:20.310Z,6.56
2018-03-25T06:05:46.094Z,6.43
2018-03-25T06:08:11.906Z,6.37
2018-03-25T06:10:37.700Z,6.47
2018-03-25T06:13:03.524Z,6.53
2018-03-25T06:15:29.331Z,6.43
2018-03-25T06:17:55.106Z,6.45
2018-03-25T06:20:20.895Z,6.43
2018-03-25T06:22:46.713Z,6.44
2018-03-25T06:25:12.519Z,6.48
2018-03-25T06:27:38.315Z,6.40
2018-03-25T06:30:04.303Z,6.56
2018-03-25T06:32:30.091Z,6.58
2018-03-25T06:34:55.889Z,6.53
2018-03-25T06:37:21.696Z,6.40
2018-03-25T06:39:47.495Z,6.33
2018-03-25T06:42:13.289Z,6.35
2018-03-25T06:44:39.078Z,6.42
2018-03-25T06:47:04.893Z,6.53
2018-03-25T06:49:30.703Z,6.50
2018-03-25T06:51:56.490Z,6.53
2018-03-25T06:54:22.267Z,6.52
2018-03-25T06:56:48.091Z,6.54
2018-03-25T06:59:13.879Z,6.57
2018-03-25T07:01:39.652Z,6.66
2018-03-25T07:04:05.699Z,6.58
2018-03-25T07:06:31.508Z,6.62
2018-03-25T07:08:57.314Z,6.62
2018-03-25T07:11:23.104Z,6.63
2018-03-25T07:13:48.907Z,6.56
2018-03-25T07:16:14.958Z,6.52
2018-03-25T07:18:40.743Z,6.57
2018-03-25T07:21:06.536Z,6.65
2018-03-25T07:23:32.323Z,6.75
2018-03-25T07:25:58.124Z,6.73
2018-03-25T07:28:23.921Z,6.82
2018-03-25T07:30:49.725Z,6.82
2018-03-25T07:33:15.546Z,6.76
2018-03-25T07:35:41.335Z,6.77
2018-03-25T07:38:07.170Z,6.87
2018-03-25T07:40:33.005Z,6.88
2018-03-25T07:42:58.796Z,6.86
2018-03-25T07:45:24.607Z,6.94
2018-03-25T07:47:50.444Z,6.97
2018-03-25T07:50:16.221Z,7.13
2018-03-25T07:52:42.003Z,7.13
2018-03-25T07:55:07.828Z,7.14
2018-03-25T07:57:33.623Z,7.17
2018-03-25T07:59:59.397Z,7.26
2018-03-25T08:02:25.226Z,7.36
2018-03-25T08:04:51.016Z,7.38
2018-03-25T08:07:16.833Z,7.70
2018-03-25T08:09:42.636Z,8.12
2018-03-25T08:12:08.431Z,7.98
2018-03-25T08:14:34.247Z,7.99
2018-03-25T08:17:00.025Z,8.32
2018-03-25T08:19:26.206Z,8.26
2018-03-25T08:21:51.983Z,8.15
2018-03-25T08:24:17.785Z,8.27
2018-03-25T08:26:43.566Z,8.39
2018-03-25T08:29:09.363Z,8.60
2018-03-25T08:31:35.155Z,8.04
2018-03-25T08:34:00.938Z,8.01
2018-03-25T08:36:26.738Z,8.13
2018-03-25T08:38:52.551Z,8.30
2018-03-25T08:41:18.358Z,8.36
2018-03-25T08:43:44.184Z,8.32
2018-03-25T08:46:09.992Z,8.40
2018-03-25T08:48:35.784Z,8.46
2018-03-25T08:51:01.691Z,8.52
2018-03-25T08:53:27.481Z,8.58
2018-03-25T08:55:53.258Z,8.72
2018-03-25T08:58:19.376Z,8.82
2018-03-25T09:00:45.180Z,8.95
2018-03-25T09:03:10.961Z,8.89
2018-03-25T09:05:36.775Z,8.94
2018-03-25T09:08:02.575Z,9.00
2018-03-25T09:10:28.378Z,8.93
2018-03-25T09:12:54.213Z,8.96
2018-03-25T09:15:19.994Z,9.01
2018-03-25T09:17:45.784Z,8.91
2018-03-25T09:20:11.588Z,9.07
2018-03-25T09:22:37.402Z,9.04
2018-03-25T09:25:03.210Z,8.96
2018-03-25T09:27:29.031Z,9.04
2018-03-25T09:29:54.823Z,9.15
2018-03-25T09:32:20.601Z,9.17
2018-03-25T09:34:46.423Z,9.28
2018-03-25T09:37:12.270Z,9.32
2018-03-25T09:39:38.028Z,9.33
2018-03-25T09:42:03.859Z,9.37
2018-03-25T09:44:29.655Z,9.30
2018-03-25T09:46:55.443Z,9.24
2018-03-25T09:49:21.224Z,9.30
2018-03-25T09:51:47.021Z,9.43
2018-03-25T09:54:12.819Z,9.33
2018-03-25T09:56:38.656Z,9.43
2018-03-25T09:59:04.448Z,9.52
2018-03-25T10:04:25.107Z,9.55
2018-03-25T10:06:50.884Z,9.53
2018-03-25T10:09:16.691Z,9.49
2018-03-25T10:11:42.512Z,9.70
2018-03-25T10:14:08.360Z,9.81
2018-03-25T10:16:34.132Z,9.61
2018-03-25T10:19:00.003Z,9.60
2018-03-25T10:21:25.807Z,9.64
2018-03-25T10:23:51.623Z,9.69
2018-03-25T10:26:17.420Z,9.72
2018-03-25T10:28:43.208Z,9.87
2018-03-25T10:31:09.032Z,9.97
2018-03-25T10:33:34.818Z,9.97
2018-03-25T10:36:00.616Z,9.92
2018-03-25T10:38:27.349Z,9.93
2018-03-25T10:40:53.172Z,9.99
2018-03-25T10:43:19.230Z,10.25
2018-03-25T10:45:45.501Z,10.27
2018-03-25T10:48:11.815Z,10.23
2018-03-25T10:50:38.021Z,10.28
2018-03-25T10:53:04.287Z,10.11
2018-03-25T10:55:30.124Z,10.15
2018-03-25T10:57:56.390Z,10.21
2018-03-25T11:00:22.580Z,10.36
2018-03-25T11:02:48.742Z,10.41
2018-03-25T11:05:15.045Z,10.46
2018-03-25T11:07:41.112Z,10.48
2018-03-25T11:10:07.406Z,10.46
2018-03-25T11:12:33.495Z,10.83
2018-03-25T11:17:31.894Z,10.88
2018-03-25T11:19:57.728Z,10.36
2018-03-25T11:22:24.290Z,10.59
2018-03-25T11:24:50.103Z,10.89
2018-03-25T11:27:16.823Z,10.89
2018-03-25T11:29:42.627Z,10.61
2018-03-25T11:32:08.426Z,10.42
2018-03-25T11:34:34.256Z,10.54
2018-03-25T11:37:00.118Z,10.39
2018-03-25T11:39:25.990Z,10.32
2018-03-25T11:41:51.820Z,10.41
2018-03-25T11:44:17.651Z,10.56
2018-03-25T11:46:43.457Z,10.58
2018-03-25T11:49:10.111Z,10.42
2018-03-25T11:51:35.935Z,10.32
2018-03-25T11:54:01.771Z,10.24
2018-03-25T11:56:27.591Z,10.32
2018-03-25T11:58:53.657Z,10.41
2018-03-25T12:01:19.607Z,10.43
2018-03-25T12:03:45.418Z,10.51
2018-03-25T12:06:11.929Z,10.41
2018-03-25T12:08:37.776Z,10.51
2018-03-25T12:11:03.566Z,10.52
2018-03-25T12:13:29.396Z,10.55
2018-03-25T12:15:55.213Z,10.53
2018-03-25T12:18:21.148Z,10.34
2018-03-25T12:20:47.060Z,10.34
2018-03-25T12:23:12.971Z,10.42
2018-03-25T12:25:38.811Z,10.39
2018-03-25T12:28:04.716Z,10.35
2018-03-25T12:30:30.548Z,10.43
2018-03-25T12:32:56.352Z,10.30
2018-03-25T12:35:23.017Z,10.31
2018-03-25T12:37:49.468Z,10.48
2018-03-25T12:40:15.303Z,10.60
2018-03-25T12:42:41.711Z,10.52
2018-03-25T12:45:07.909Z,10.35
2018-03-25T12:47:33.715Z,10.39
2018-03-25T12:49:59.532Z,10.41
2018-03-25T12:52:25.324Z,10.53
2018-03-25T12:54:51.144Z,10.32
2018-03-25T12:57:16.939Z,10.31
2018-03-25T12:59:42.762Z,10.27
2018-03-25T13:02:08.553Z,10.11
2018-03-25T13:04:34.403Z,10.30
2018-03-25T13:07:00.187Z,11.06
2018-03-25T13:09:26.072Z,10.70
2018-03-25T13:11:51.903Z,10.48
2018-03-25T13:14:17.742Z,10.09
2018-03-25T13:16:43.544Z,10.10
2018-03-25T13:19:09.351Z,10.20
2018-03-25T13:21:35.225Z,10.42
2018-03-25T13:24:01.051Z,10.40
2018-03-25T13:26:26.836Z,10.35
2018-03-25T13:28:52.665Z,10.16
2018-03-25T13:31:18.474Z,10.08
2018-03-25T13:33:44.262Z,10.14
2018-03-25T13:36:10.067Z,10.18
2018-03-25T13:38:35.867Z,10.13
2018-03-25T13:41:01.660Z,10.12
2018-03-25T13:43:27.481Z,10.27
2018-03-25T13:45:53.282Z,10.12
2018-03-25T13:48:19.108Z,9.96
2018-03-25T13:50:44.906Z,10.01
2018-03-25T13:53:10.702Z,9.77
2018-03-25T13:55:36.506Z,9.91
2018-03-25T13:58:02.342Z,9.91
2018-03-25T14:00:28.125Z,9.91
2018-03-25T14:02:53.955Z,10.00
2018-03-25T14:05:19.826Z,9.94
2018-03-25T14:07:45.660Z,9.89
2018-03-25T14:10:11.440Z,9.97
2018-03-25T14:12:37.277Z,10.54
2018-03-25T14:15:03.091Z,10.23
2018-03-25T14:17:28.915Z,10.05
2018-03-25T14:19:54.752Z,9.98
2018-03-25T14:22:20.532Z,10.34
2018-03-25T14:24:46.344Z,10.06
2018-03-25T14:27:12.214Z,9.85
2018-03-25T14:29:37.998Z,9.98
2018-03-25T14:32:03.825Z,9.89
2018-03-25T14:34:29.629Z,9.82
2018-03-25T14:36:55.410Z,11.13
2018-03-25T14:39:21.208Z,10.94
2018-03-25T14:41:47.001Z,11.09
2018-03-25T14:44:13.848Z,11.10
2018-03-25T14:46:39.651Z,10.61
2018-03-25T14:49:05.473Z,11.13
2018-03-25T14:51:31.286Z,10.29
2018-03-25T14:54:04.179Z,9.88
2018-03-25T14:56:30.016Z,9.75
2018-03-25T14:58:55.798Z,9.61
2018-03-25T15:01:21.625Z,9.69
2018-03-25T15:03:47.418Z,9.70
2018-03-25T15:06:13.220Z,9.66
2018-03-25T15:08:39.115Z,9.43
2018-03-25T15:11:04.938Z,9.43
2018-03-25T15:13:30.760Z,9.46
2018-03-25T15:15:56.820Z,9.40
2018-03-25T15:18:22.634Z,9.26
2018-03-25T15:20:48.468Z,9.22
2018-03-25T15:23:14.275Z,9.32
2018-03-25T15:25:40.058Z,9.31
2018-03-25T15:28:05.853Z,9.31
2018-03-25T15:30:31.688Z,10.91
2018-03-25T15:32:57.479Z,11.09
2018-03-25T15:35:23.284Z,10.25
2018-03-25T15:37:49.113Z,10.96
2018-03-25T15:40:14.920Z,10.91
2018-03-25T15:42:40.708Z,10.66
2018-03-25T15:45:06.510Z,10.63
2018-03-25T15:47:32.309Z,9.89
2018-03-25T15:49:58.104Z,10.25
2018-03-25T15:52:24.199Z,9.73
2018-03-25T15:54:49.991Z,9.34
2018-03-25T15:57:15.770Z,9.10
2018-03-25T15:59:41.651Z,9.10
2018-03-25T16:02:07.457Z,9.02
2018-03-25T16:04:33.267Z,9.05
2018-03-25T16:06:59.064Z,8.97
2018-03-25T16:09:24.873Z,8.90
2018-03-25T16:11:51.135Z,8.85
2018-03-25T16:14:16.952Z,8.94
2018-03-25T16:16:42.747Z,8.87
2018-03-25T16:19:08.615Z,8.90
2018-03-25T16:21:34.426Z,8.90
2018-03-25T16:24:00.202Z,8.97
2018-03-25T16:26:26.000Z,8.83
2018-03-25T16:28:51.890Z,8.82
2018-03-25T16:31:17.731Z,8.74
2018-03-25T16:33:43.523Z,8.79
2018-03-25T16:36:09.345Z,8.82
2018-03-25T16:38:35.166Z,8.68
2018-03-25T16:41:00.978Z,8.67
2018-03-25T16:43:26.775Z,8.66
2018-03-25T16:45:52.586Z,8.64
2018-03-25T16:48:18.380Z,8.64
2018-03-25T16:50:44.191Z,8.55
2018-03-25T16:53:10.261Z,8.66
2018-03-25T16:55:36.053Z,8.66
2018-03-25T16:58:01.903Z,8.57
2018-03-25T17:00:27.924Z,8.42
2018-03-25T17:02:53.723Z,8.43
2018-03-25T17:05:19.515Z,8.49
2018-03-25T17:07:46.150Z,8.41
2018-03-25T17:10:12.900Z,8.39
2018-03-25T17:12:38.737Z,8.43
2018-03-25T17:15:04.618Z,8.33
2018-03-25T17:17:30.447Z,8.34
2018-03-25T17:19:56.300Z,8.32
2018-03-25T17:22:23.104Z,8.27
2018-03-25T17:24:48.929Z,8.26
2018-03-25T17:27:15.068Z,8.26
2018-03-25T17:29:42.420Z,8.26
2018-03-25T17:32:08.914Z,8.24
2018-03-25T17:34:34.773Z,8.32
2018-03-25T17:37:00.628Z,8.36
2018-03-25T17:39:26.554Z,8.40
2018-03-25T17:41:52.474Z,8.41
2018-03-25T17:44:18.269Z,8.36
2018-03-25T17:46:45.056Z,8.37
2018-03-25T17:49:10.866Z,8.29
2018-03-25T17:51:36.692Z,8.22
2018-03-25T17:54:02.521Z,8.25
2018-03-25T17:56:28.336Z,8.39
2018-03-25T17:58:54.147Z,8.37
2018-03-25T18:01:19.957Z,8.25
2018-03-25T18:03:45.770Z,8.38
2018-03-25T18:06:11.681Z,8.34
2018-03-25T18:08:37.903Z,8.38
2018-03-25T18:11:03.717Z,8.33
2018-03-25T18:13:29.591Z,8.40
2018-03-25T18:15:55.412Z,9.00
2018-03-25T18:18:21.455Z,9.18
2018-03-25T18:20:56.295Z,8.62
2018-03-25T18:23:14.230Z,8.41
2018-03-25T18:25:40.032Z,8.43
2018-03-25T18:28:05.979Z,8.35
2018-03-25T18:30:32.194Z,8.26
2018-03-25T18:32:58.353Z,8.23
2018-03-25T18:35:24.598Z,8.19
2018-03-25T18:37:50.728Z,8.16
2018-03-25T18:40:16.919Z,8.15
2018-03-25T18:42:42.867Z,7.98
2018-03-25T18:45:09.107Z,8.04
2018-03-25T18:47:35.062Z,8.25
2018-03-25T18:50:00.991Z,8.13
2018-03-25T18:52:26.939Z,8.03
2018-03-25T18:54:53.081Z,8.44
2018-03-25T18:57:19.433Z,8.70
2018-03-25T18:59:45.463Z,8.27
2018-03-25T19:02:11.331Z,8.31
2018-03-25T19:04:37.541Z,8.27
2018-03-25T19:07:03.861Z,8.14
2018-03-25T19:09:31.107Z,8.10
2018-03-25T19:11:58.492Z,7.92
2018-03-25T19:14:25.138Z,8.03
2018-03-25T19:16:51.638Z,7.95
2018-03-25T19:19:17.886Z,7.86
2018-03-25T19:21:44.102Z,7.81
2018-03-25T19:24:12.265Z,7.83
2018-03-25T19:26:38.528Z,7.73
2018-03-25T19:29:04.487Z,7.75
2018-03-25T19:31:31.632Z,7.60
2018-03-25T19:33:58.025Z,7.55
2018-03-25T19:36:24.151Z,7.78
2018-03-25T19:38:50.366Z,7.62
2018-03-25T19:41:16.672Z,7.57
2018-03-25T19:43:43.039Z,7.54
2018-03-25T19:46:09.294Z,7.63
2018-03-25T19:48:35.661Z,7.58
2018-03-25T19:51:02.427Z,7.57
2018-03-25T19:53:28.580Z,7.44
2018-03-25T19:55:54.722Z,7.41
2018-03-25T19:58:20.727Z,7.35
2018-03-25T20:00:46.538Z,7.31
2018-03-25T20:03:12.382Z,7.33
2018-03-25T20:05:38.221Z,7.36
2018-03-25T20:08:04.125Z,7.36
2018-03-25T20:10:29.974Z,7.23
2018-03-25T20:12:55.833Z,7.31
2018-03-25T20:15:21.678Z,7.29
2018-03-25T20:17:47.506Z,7.18
2018-03-25T20:20:13.320Z,7.13
2018-03-25T20:22:39.208Z,7.22
2018-03-25T20:25:05.056Z,7.15
2018-03-25T20:27:30.852Z,7.11
2018-03-25T20:29:56.682Z,7.06
2018-03-25T20:32:22.507Z,7.00
2018-03-25T20:34:48.313Z,7.14
2018-03-25T20:37:14.113Z,7.07
2018-03-25T20:39:39.939Z,7.09
2018-03-25T20:42:05.770Z,7.07
2018-03-25T20:44:31.569Z,7.02
2018-03-25T20:46:57.397Z,6.93
2018-03-25T20:49:23.318Z,6.84
2018-03-25T20:51:49.193Z,6.82
2018-03-25T20:54:15.017Z,6.92
2018-03-25T20:56:40.831Z,6.77
2018-03-25T20:59:06.647Z,6.76
2018-03-25T21:01:32.485Z,6.79
2018-03-25T21:03:58.304Z,6.80
2018-03-25T21:06:24.231Z,6.78
2018-03-25T21:08:50.040Z,6.79
2018-03-25T21:11:15.836Z,6.72
2018-03-25T21:13:41.619Z,6.55
2018-03-25T21:16:07.755Z,6.60
2018-03-25T21:18:33.629Z,6.61
2018-03-25T21:20:59.415Z,6.59
2018-03-25T21:23:25.242Z,6.51
2018-03-25T21:25:51.039Z,6.48
2018-03-25T21:28:17.797Z,6.57
2018-03-25T21:30:43.643Z,6.46
2018-03-25T21:33:09.468Z,6.59
2018-03-25T21:35:35.267Z,6.53
2018-03-25T21:38:01.072Z,6.50
2018-03-25T21:40:27.528Z,6.47
2018-03-25T21:42:53.340Z,6.48
2018-03-25T21:45:19.729Z,6.46
2018-03-25T21:47:45.553Z,6.51
2018-03-25T21:50:11.355Z,6.51
2018-03-25T21:52:37.224Z,6.47
2018-03-25T21:55:03.051Z,6.41
2018-03-25T21:57:28.914Z,6.47
2018-03-25T21:59:54.751Z,6.35
2018-03-25T22:02:20.565Z,6.38
2018-03-25T22:04:46.652Z,6.32
2018-03-25T22:07:12.491Z,6.33
2018-03-25T22:09:38.293Z,6.27
2018-03-25T22:12:04.110Z,6.27
2018-03-25T22:14:29.882Z,7.15
2018-03-25T22:16:55.676Z,6.48
2018-03-25T22:19:21.459Z,6.33
2018-03-25T22:21:47.231Z,6.37
2018-03-25T22:24:13.052Z,6.31
2018-03-25T22:26:38.842Z,6.17
2018-03-25T22:29:04.647Z,6.19
2018-03-25T22:31:30.648Z,6.22
2018-03-25T22:33:56.439Z,6.12
2018-03-25T22:36:22.224Z,6.16
2018-03-25T22:38:48.025Z,6.08
2018-03-25T22:41:13.827Z,6.07
2018-03-25T22:43:39.621Z,6.06
2018-03-25T22:46:05.449Z,5.99
2018-03-25T22:48:31.230Z,5.96
2018-03-25T22:50:57.014Z,5.81
2018-03-25T22:53:22.815Z,5.98
2018-03-25T22:55:48.600Z,5.97
2018-03-25T22:58:14.392Z,5.99
2018-03-25T23:00:40.206Z,5.91
2018-03-25T23:03:08.074Z,5.96
2018-03-25T23:05:33.877Z,5.86
2018-03-25T23:07:59.684Z,5.91
2018-03-25T23:10:25.505Z,5.87
2018-03-25T23:12:51.309Z,5.90
2018-03-25T23:15:17.418Z,5.93
2018-03-25T23:17:43.230Z,5.93
2018-03-25T23:20:09.022Z,5.89
2018-03-25T23:22:34.843Z,5.87
2018-03-25T23:25:00.631Z,5.82
2018-03-25T23:27:26.429Z,5.89
2018-03-25T23:29:52.239Z,5.91
2018-03-25T23:32:18.035Z,5.79
2018-03-25T23:34:43.826Z,5.74
2018-03-25T23:37:09.634Z,5.73
2018-03-25T23:39:35.486Z,5.70
2018-03-25T23:42:01.275Z,5.73
2018-03-25T23:44:27.085Z,5.81
2018-03-25T23:46:52.868Z,5.80
2018-03-25T23:49:18.660Z,5.76
2018-03-25T23:51:44.492Z,5.76
2018-03-25T23:54:10.396Z,5.75
2018-03-25T23:56:36.213Z,5.79
2018-03-25T23:59:02.060Z,5.73
